sensor_id;sensor_type;location;lat;lon;timestamp;P1;durP1;ratioP1;P2;durP2;ratioP2
60336;SDS011;46978;50.288;28.624;2023-11-19T00:00:44;6.48;;;4.04;;
60336;SDS011;46978;50.288;28.624;2023-11-19T00:01:45;8.49;;;3.94;;
60336;SDS011;46978;50.288;28.624;2023-11-19T00:02:47;7.29;;;4.22;;
60336;SDS011;46978;50.288;28.624;2023-11-19T00:03:48;7.73;;;3.93;;
60336;SDS011;46978;50.288;28.624;2023-11-19T00:04:50;7.77;;;4.31;;
60336;SDS011;46978;50.288;28.624;2023-11-19T00:05:51;6.47;;;3.84;;
60336;SDS011;46978;50.288;28.624;2023-11-19T00:06:53;8.56;;;4.89;;
60336;SDS011;46978;50.288;28.624;2023-11-19T00:07:54;8.64;;;4.44;;
60336;SDS011;46978;50.288;28.624;2023-11-19T00:08:56;7.82;;;4.17;;
60336;SDS011;46978;50.288;28.624;2023-11-19T00:09:57;7.78;;;4.16;;
60336;SDS011;46978;50.288;28.624;2023-11-19T00:10:59;6.80;;;3.91;;
60336;SDS011;46978;50.288;28.624;2023-11-19T00:12:01;6.16;;;3.93;;
60336;SDS011;46978;50.288;28.624;2023-11-19T00:13:02;6.32;;;3.38;;
60336;SDS011;46978;50.288;28.624;2023-11-19T00:14:04;7.80;;;4.10;;
60336;SDS011;46978;50.288;28.624;2023-11-19T00:15:06;8.00;;;4.31;;
60336;SDS011;46978;50.288;28.624;2023-11-19T00:16:09;7.23;;;4.33;;
60336;SDS011;46978;50.288;28.624;2023-11-19T00:17:10;8.38;;;4.33;;
60336;SDS011;46978;50.288;28.624;2023-11-19T00:18:12;8.27;;;3.58;;
60336;SDS011;46978;50.288;28.624;2023-11-19T00:19:13;6.04;;;3.44;;
60336;SDS011;46978;50.288;28.624;2023-11-19T00:20:20;6.75;;;3.53;;
60336;SDS011;46978;50.288;28.624;2023-11-19T00:21:19;7.58;;;4.23;;
60336;SDS011;46978;50.288;28.624;2023-11-19T00:22:21;5.89;;;3.42;;
60336;SDS011;46978;50.288;28.624;2023-11-19T00:23:22;5.68;;;3.15;;
60336;SDS011;46978;50.288;28.624;2023-11-19T00:24:24;6.41;;;3.57;;
60336;SDS011;46978;50.288;28.624;2023-11-19T00:25:26;6.04;;;3.09;;
60336;SDS011;46978;50.288;28.624;2023-11-19T00:26:27;5.55;;;3.51;;
60336;SDS011;46978;50.288;28.624;2023-11-19T00:27:29;6.18;;;3.75;;
60336;SDS011;46978;50.288;28.624;2023-11-19T00:28:30;5.76;;;3.56;;
60336;SDS011;46978;50.288;28.624;2023-11-19T00:29:33;7.05;;;3.69;;
60336;SDS011;46978;50.288;28.624;2023-11-19T00:30:34;6.62;;;3.61;;
60336;SDS011;46978;50.288;28.624;2023-11-19T00:31:36;5.55;;;3.69;;
60336;SDS011;46978;50.288;28.624;2023-11-19T00:32:38;5.96;;;3.49;;
60336;SDS011;46978;50.288;28.624;2023-11-19T00:33:39;5.24;;;3.33;;
60336;SDS011;46978;50.288;28.624;2023-11-19T00:34:43;5.74;;;3.57;;
60336;SDS011;46978;50.288;28.624;2023-11-19T00:35:45;5.98;;;3.45;;
60336;SDS011;46978;50.288;28.624;2023-11-19T00:36:47;5.17;;;3.41;;
60336;SDS011;46978;50.288;28.624;2023-11-19T00:37:48;5.41;;;3.51;;
60336;SDS011;46978;50.288;28.624;2023-11-19T00:38:50;6.87;;;4.05;;
60336;SDS011;46978;50.288;28.624;2023-11-19T00:39:51;5.39;;;3.07;;
60336;SDS011;46978;50.288;28.624;2023-11-19T00:40:53;5.15;;;3.48;;
60336;SDS011;46978;50.288;28.624;2023-11-19T00:41:55;5.94;;;3.71;;
60336;SDS011;46978;50.288;28.624;2023-11-19T00:42:56;5.64;;;3.46;;
60336;SDS011;46978;50.288;28.624;2023-11-19T00:43:58;6.14;;;3.70;;
60336;SDS011;46978;50.288;28.624;2023-11-19T00:44:59;7.06;;;3.91;;
60336;SDS011;46978;50.288;28.624;2023-11-19T00:46:01;5.83;;;3.46;;
60336;SDS011;46978;50.288;28.624;2023-11-19T00:47:03;5.74;;;3.63;;
60336;SDS011;46978;50.288;28.624;2023-11-19T00:48:05;5.68;;;3.30;;
60336;SDS011;46978;50.288;28.624;2023-11-19T00:49:06;7.96;;;3.64;;
60336;SDS011;46978;50.288;28.624;2023-11-19T00:50:08;5.39;;;3.65;;
60336;SDS011;46978;50.288;28.624;2023-11-19T00:51:11;6.69;;;3.85;;
60336;SDS011;46978;50.288;28.624;2023-11-19T00:52:13;5.47;;;3.67;;
60336;SDS011;46978;50.288;28.624;2023-11-19T00:53:15;6.99;;;4.09;;
60336;SDS011;46978;50.288;28.624;2023-11-19T00:54:16;6.29;;;3.82;;
60336;SDS011;46978;50.288;28.624;2023-11-19T00:55:18;5.86;;;3.86;;
60336;SDS011;46978;50.288;28.624;2023-11-19T00:56:20;7.75;;;4.37;;
60336;SDS011;46978;50.288;28.624;2023-11-19T00:57:21;7.68;;;3.90;;
60336;SDS011;46978;50.288;28.624;2023-11-19T00:58:23;6.52;;;3.91;;
60336;SDS011;46978;50.288;28.624;2023-11-19T00:59:25;7.65;;;4.19;;
60336;SDS011;46978;50.288;28.624;2023-11-19T01:00:27;7.06;;;3.93;;
60336;SDS011;46978;50.288;28.624;2023-11-19T01:01:28;6.04;;;4.21;;
60336;SDS011;46978;50.288;28.624;2023-11-19T01:02:30;6.49;;;3.71;;
60336;SDS011;46978;50.288;28.624;2023-11-19T01:03:31;6.81;;;3.62;;
60336;SDS011;46978;50.288;28.624;2023-11-19T01:04:33;5.92;;;3.57;;
60336;SDS011;46978;50.288;28.624;2023-11-19T01:05:36;5.71;;;3.56;;
60336;SDS011;46978;50.288;28.624;2023-11-19T01:06:38;5.98;;;3.71;;
60336;SDS011;46978;50.288;28.624;2023-11-19T01:07:39;6.40;;;3.29;;
60336;SDS011;46978;50.288;28.624;2023-11-19T01:08:42;5.99;;;3.68;;
60336;SDS011;46978;50.288;28.624;2023-11-19T01:09:44;5.38;;;3.24;;
60336;SDS011;46978;50.288;28.624;2023-11-19T01:10:45;5.86;;;3.03;;
60336;SDS011;46978;50.288;28.624;2023-11-19T01:11:47;6.10;;;4.02;;
60336;SDS011;46978;50.288;28.624;2023-11-19T01:12:48;5.28;;;2.89;;
60336;SDS011;46978;50.288;28.624;2023-11-19T01:13:50;6.66;;;3.66;;
60336;SDS011;46978;50.288;28.624;2023-11-19T01:14:52;6.71;;;3.91;;
60336;SDS011;46978;50.288;28.624;2023-11-19T01:15:54;6.14;;;3.82;;
60336;SDS011;46978;50.288;28.624;2023-11-19T01:16:56;6.09;;;3.53;;
60336;SDS011;46978;50.288;28.624;2023-11-19T01:17:57;5.01;;;3.10;;
60336;SDS011;46978;50.288;28.624;2023-11-19T01:18:59;6.31;;;3.73;;
60336;SDS011;46978;50.288;28.624;2023-11-19T01:20:00;5.74;;;3.61;;
60336;SDS011;46978;50.288;28.624;2023-11-19T01:21:02;5.09;;;3.66;;
60336;SDS011;46978;50.288;28.624;2023-11-19T01:22:04;5.71;;;3.79;;
60336;SDS011;46978;50.288;28.624;2023-11-19T01:23:06;6.32;;;3.39;;
60336;SDS011;46978;50.288;28.624;2023-11-19T01:24:08;5.47;;;3.91;;
60336;SDS011;46978;50.288;28.624;2023-11-19T01:25:10;5.39;;;3.83;;
60336;SDS011;46978;50.288;28.624;2023-11-19T01:26:12;6.15;;;3.13;;
60336;SDS011;46978;50.288;28.624;2023-11-19T01:27:14;5.65;;;3.61;;
60336;SDS011;46978;50.288;28.624;2023-11-19T01:28:15;6.40;;;3.37;;
60336;SDS011;46978;50.288;28.624;2023-11-19T01:29:17;6.41;;;3.53;;
60336;SDS011;46978;50.288;28.624;2023-11-19T01:30:19;7.57;;;4.51;;
60336;SDS011;46978;50.288;28.624;2023-11-19T01:31:21;10.00;;;6.03;;
60336;SDS011;46978;50.288;28.624;2023-11-19T01:32:22;17.25;;;7.73;;
60336;SDS011;46978;50.288;28.624;2023-11-19T01:33:24;15.19;;;8.09;;
60336;SDS011;46978;50.288;28.624;2023-11-19T01:34:25;11.41;;;5.65;;
60336;SDS011;46978;50.288;28.624;2023-11-19T01:35:26;7.93;;;3.66;;
60336;SDS011;46978;50.288;28.624;2023-11-19T01:36:28;6.33;;;3.84;;
60336;SDS011;46978;50.288;28.624;2023-11-19T01:37:30;6.02;;;3.23;;
60336;SDS011;46978;50.288;28.624;2023-11-19T01:38:32;6.65;;;3.54;;
60336;SDS011;46978;50.288;28.624;2023-11-19T01:39:33;6.58;;;3.71;;
60336;SDS011;46978;50.288;28.624;2023-11-19T01:40:35;5.48;;;3.26;;
60336;SDS011;46978;50.288;28.624;2023-11-19T01:41:36;6.56;;;4.19;;
60336;SDS011;46978;50.288;28.624;2023-11-19T01:42:38;6.23;;;3.56;;
60336;SDS011;46978;50.288;28.624;2023-11-19T01:43:40;7.51;;;5.17;;
60336;SDS011;46978;50.288;28.624;2023-11-19T01:44:42;5.64;;;3.41;;
60336;SDS011;46978;50.288;28.624;2023-11-19T01:45:43;5.81;;;3.21;;
60336;SDS011;46978;50.288;28.624;2023-11-19T01:46:45;5.73;;;3.34;;
60336;SDS011;46978;50.288;28.624;2023-11-19T01:47:48;6.09;;;3.72;;
60336;SDS011;46978;50.288;28.624;2023-11-19T01:48:49;5.23;;;3.45;;
60336;SDS011;46978;50.288;28.624;2023-11-19T01:49:51;6.81;;;3.75;;
60336;SDS011;46978;50.288;28.624;2023-11-19T01:50:53;7.60;;;4.05;;
60336;SDS011;46978;50.288;28.624;2023-11-19T01:51:56;5.47;;;3.69;;
60336;SDS011;46978;50.288;28.624;2023-11-19T01:52:59;6.12;;;3.70;;
60336;SDS011;46978;50.288;28.624;2023-11-19T01:54:01;5.79;;;3.59;;
60336;SDS011;46978;50.288;28.624;2023-11-19T01:55:03;5.15;;;3.55;;
60336;SDS011;46978;50.288;28.624;2023-11-19T01:56:07;6.22;;;3.80;;
60336;SDS011;46978;50.288;28.624;2023-11-19T01:57:10;6.72;;;3.71;;
60336;SDS011;46978;50.288;28.624;2023-11-19T01:58:13;5.42;;;3.34;;
60336;SDS011;46978;50.288;28.624;2023-11-19T01:59:14;8.52;;;4.64;;
60336;SDS011;46978;50.288;28.624;2023-11-19T02:00:18;8.57;;;4.81;;
60336;SDS011;46978;50.288;28.624;2023-11-19T02:01:20;8.28;;;4.69;;
60336;SDS011;46978;50.288;28.624;2023-11-19T02:02:23;7.83;;;4.79;;
60336;SDS011;46978;50.288;28.624;2023-11-19T02:03:25;7.41;;;4.53;;
60336;SDS011;46978;50.288;28.624;2023-11-19T02:04:27;13.45;;;7.53;;
60336;SDS011;46978;50.288;28.624;2023-11-19T02:05:29;15.69;;;9.71;;
60336;SDS011;46978;50.288;28.624;2023-11-19T02:06:31;20.08;;;11.20;;
60336;SDS011;46978;50.288;28.624;2023-11-19T02:07:35;31.31;;;16.21;;
60336;SDS011;46978;50.288;28.624;2023-11-19T02:08:36;28.64;;;13.59;;
60336;SDS011;46978;50.288;28.624;2023-11-19T02:09:38;34.36;;;17.11;;
60336;SDS011;46978;50.288;28.624;2023-11-19T02:10:40;29.17;;;15.05;;
60336;SDS011;46978;50.288;28.624;2023-11-19T02:11:41;32.65;;;15.78;;
60336;SDS011;46978;50.288;28.624;2023-11-19T02:12:43;16.50;;;9.04;;
60336;SDS011;46978;50.288;28.624;2023-11-19T02:13:44;16.59;;;8.51;;
60336;SDS011;46978;50.288;28.624;2023-11-19T02:14:46;26.29;;;11.87;;
60336;SDS011;46978;50.288;28.624;2023-11-19T02:15:47;37.51;;;16.00;;
60336;SDS011;46978;50.288;28.624;2023-11-19T02:16:49;32.74;;;13.74;;
60336;SDS011;46978;50.288;28.624;2023-11-19T02:17:51;20.95;;;8.76;;
60336;SDS011;46978;50.288;28.624;2023-11-19T02:18:52;11.05;;;5.67;;
60336;SDS011;46978;50.288;28.624;2023-11-19T02:19:54;21.48;;;9.07;;
60336;SDS011;46978;50.288;28.624;2023-11-19T02:21:00;33.16;;;13.93;;
60336;SDS011;46978;50.288;28.624;2023-11-19T02:22:00;37.24;;;14.41;;
60336;SDS011;46978;50.288;28.624;2023-11-19T02:23:01;22.65;;;10.35;;
60336;SDS011;46978;50.288;28.624;2023-11-19T02:24:04;20.41;;;9.45;;
60336;SDS011;46978;50.288;28.624;2023-11-19T02:25:09;34.04;;;14.18;;
60336;SDS011;46978;50.288;28.624;2023-11-19T02:28:51;14.87;;;7.94;;
60336;SDS011;46978;50.288;28.624;2023-11-19T02:29:53;11.09;;;5.97;;
60336;SDS011;46978;50.288;28.624;2023-11-19T02:30:55;14.76;;;7.56;;
60336;SDS011;46978;50.288;28.624;2023-11-19T02:31:56;13.93;;;7.49;;
60336;SDS011;46978;50.288;28.624;2023-11-19T02:32:58;15.97;;;8.74;;
60336;SDS011;46978;50.288;28.624;2023-11-19T02:34:00;11.98;;;6.83;;
60336;SDS011;46978;50.288;28.624;2023-11-19T02:35:02;12.42;;;5.63;;
60336;SDS011;46978;50.288;28.624;2023-11-19T02:36:07;8.84;;;5.41;;
60336;SDS011;46978;50.288;28.624;2023-11-19T02:37:10;8.03;;;5.02;;
60336;SDS011;46978;50.288;28.624;2023-11-19T02:38:11;5.49;;;3.46;;
60336;SDS011;46978;50.288;28.624;2023-11-19T02:39:13;5.95;;;3.57;;
60336;SDS011;46978;50.288;28.624;2023-11-19T02:40:15;5.58;;;3.27;;
60336;SDS011;46978;50.288;28.624;2023-11-19T02:41:16;5.24;;;3.09;;
60336;SDS011;46978;50.288;28.624;2023-11-19T02:42:18;5.30;;;3.42;;
60336;SDS011;46978;50.288;28.624;2023-11-19T02:43:19;5.09;;;3.61;;
60336;SDS011;46978;50.288;28.624;2023-11-19T02:44:21;5.61;;;3.09;;
60336;SDS011;46978;50.288;28.624;2023-11-19T02:45:23;4.71;;;2.85;;
60336;SDS011;46978;50.288;28.624;2023-11-19T02:46:25;5.77;;;3.59;;
60336;SDS011;46978;50.288;28.624;2023-11-19T02:47:27;5.82;;;3.66;;
60336;SDS011;46978;50.288;28.624;2023-11-19T02:48:29;6.41;;;3.50;;
60336;SDS011;46978;50.288;28.624;2023-11-19T02:49:30;5.44;;;3.08;;
60336;SDS011;46978;50.288;28.624;2023-11-19T02:50:32;5.59;;;3.30;;
60336;SDS011;46978;50.288;28.624;2023-11-19T02:51:34;5.70;;;2.93;;
60336;SDS011;46978;50.288;28.624;2023-11-19T02:52:35;5.34;;;3.04;;
60336;SDS011;46978;50.288;28.624;2023-11-19T02:53:37;5.18;;;3.28;;
60336;SDS011;46978;50.288;28.624;2023-11-19T02:54:39;6.05;;;3.55;;
60336;SDS011;46978;50.288;28.624;2023-11-19T02:55:40;5.36;;;3.67;;
60336;SDS011;46978;50.288;28.624;2023-11-19T02:56:42;5.36;;;3.52;;
60336;SDS011;46978;50.288;28.624;2023-11-19T02:57:44;5.66;;;3.30;;
60336;SDS011;46978;50.288;28.624;2023-11-19T02:58:46;4.92;;;3.18;;
60336;SDS011;46978;50.288;28.624;2023-11-19T02:59:47;5.26;;;3.05;;
60336;SDS011;46978;50.288;28.624;2023-11-19T03:00:49;6.14;;;3.29;;
60336;SDS011;46978;50.288;28.624;2023-11-19T03:01:51;5.56;;;3.34;;
60336;SDS011;46978;50.288;28.624;2023-11-19T03:02:52;5.42;;;3.14;;
60336;SDS011;46978;50.288;28.624;2023-11-19T03:03:54;5.16;;;3.36;;
60336;SDS011;46978;50.288;28.624;2023-11-19T03:04:56;6.91;;;3.99;;
60336;SDS011;46978;50.288;28.624;2023-11-19T03:05:58;4.99;;;3.33;;
60336;SDS011;46978;50.288;28.624;2023-11-19T03:06:59;4.86;;;3.21;;
60336;SDS011;46978;50.288;28.624;2023-11-19T03:08:01;5.64;;;2.69;;
60336;SDS011;46978;50.288;28.624;2023-11-19T03:09:02;4.71;;;2.89;;
60336;SDS011;46978;50.288;28.624;2023-11-19T03:10:05;6.55;;;3.57;;
60336;SDS011;46978;50.288;28.624;2023-11-19T03:11:08;5.78;;;3.10;;
60336;SDS011;46978;50.288;28.624;2023-11-19T03:12:09;5.21;;;3.24;;
60336;SDS011;46978;50.288;28.624;2023-11-19T03:13:11;4.55;;;2.78;;
60336;SDS011;46978;50.288;28.624;2023-11-19T03:14:13;5.64;;;3.27;;
60336;SDS011;46978;50.288;28.624;2023-11-19T03:15:15;6.13;;;3.14;;
60336;SDS011;46978;50.288;28.624;2023-11-19T03:16:17;6.21;;;3.41;;
60336;SDS011;46978;50.288;28.624;2023-11-19T03:17:19;4.18;;;2.96;;
60336;SDS011;46978;50.288;28.624;2023-11-19T03:18:20;5.61;;;3.17;;
60336;SDS011;46978;50.288;28.624;2023-11-19T03:19:22;6.25;;;3.46;;
60336;SDS011;46978;50.288;28.624;2023-11-19T03:20:24;6.43;;;3.75;;
60336;SDS011;46978;50.288;28.624;2023-11-19T03:21:28;7.42;;;3.54;;
60336;SDS011;46978;50.288;28.624;2023-11-19T03:22:30;5.94;;;3.96;;
60336;SDS011;46978;50.288;28.624;2023-11-19T03:23:32;7.44;;;4.05;;
60336;SDS011;46978;50.288;28.624;2023-11-19T03:24:33;7.34;;;3.68;;
60336;SDS011;46978;50.288;28.624;2023-11-19T03:25:34;6.97;;;3.94;;
60336;SDS011;46978;50.288;28.624;2023-11-19T03:26:36;6.95;;;3.44;;
60336;SDS011;46978;50.288;28.624;2023-11-19T03:27:38;5.07;;;3.36;;
60336;SDS011;46978;50.288;28.624;2023-11-19T03:28:41;6.09;;;3.04;;
60336;SDS011;46978;50.288;28.624;2023-11-19T03:29:42;6.69;;;3.73;;
60336;SDS011;46978;50.288;28.624;2023-11-19T03:30:44;7.12;;;3.95;;
60336;SDS011;46978;50.288;28.624;2023-11-19T03:31:46;7.31;;;4.01;;
60336;SDS011;46978;50.288;28.624;2023-11-19T03:32:47;9.10;;;4.59;;
60336;SDS011;46978;50.288;28.624;2023-11-19T03:33:49;5.54;;;3.00;;
60336;SDS011;46978;50.288;28.624;2023-11-19T03:34:50;5.59;;;3.26;;
60336;SDS011;46978;50.288;28.624;2023-11-19T03:35:52;7.90;;;4.12;;
60336;SDS011;46978;50.288;28.624;2023-11-19T03:36:53;5.36;;;3.35;;
60336;SDS011;46978;50.288;28.624;2023-11-19T03:37:57;5.99;;;3.46;;
60336;SDS011;46978;50.288;28.624;2023-11-19T03:38:58;6.46;;;3.71;;
60336;SDS011;46978;50.288;28.624;2023-11-19T03:40:00;6.16;;;3.45;;
60336;SDS011;46978;50.288;28.624;2023-11-19T03:41:01;6.30;;;3.96;;
60336;SDS011;46978;50.288;28.624;2023-11-19T03:42:03;5.91;;;3.67;;
60336;SDS011;46978;50.288;28.624;2023-11-19T03:43:05;5.64;;;3.40;;
60336;SDS011;46978;50.288;28.624;2023-11-19T03:44:07;5.67;;;3.39;;
60336;SDS011;46978;50.288;28.624;2023-11-19T03:45:08;5.30;;;3.55;;
60336;SDS011;46978;50.288;28.624;2023-11-19T03:47:20;5.91;;;3.72;;
60336;SDS011;46978;50.288;28.624;2023-11-19T03:48:22;6.59;;;3.60;;
60336;SDS011;46978;50.288;28.624;2023-11-19T03:49:24;6.28;;;3.69;;
60336;SDS011;46978;50.288;28.624;2023-11-19T03:50:25;6.72;;;3.84;;
60336;SDS011;46978;50.288;28.624;2023-11-19T03:51:27;5.91;;;3.74;;
60336;SDS011;46978;50.288;28.624;2023-11-19T03:52:28;5.89;;;3.74;;
60336;SDS011;46978;50.288;28.624;2023-11-19T03:53:30;6.52;;;3.63;;
60336;SDS011;46978;50.288;28.624;2023-11-19T03:54:31;6.38;;;3.52;;
60336;SDS011;46978;50.288;28.624;2023-11-19T03:55:33;6.05;;;3.45;;
60336;SDS011;46978;50.288;28.624;2023-11-19T03:56:35;5.45;;;3.62;;
60336;SDS011;46978;50.288;28.624;2023-11-19T03:57:37;5.56;;;3.41;;
60336;SDS011;46978;50.288;28.624;2023-11-19T03:58:38;5.44;;;3.41;;
60336;SDS011;46978;50.288;28.624;2023-11-19T03:59:40;5.45;;;3.49;;
60336;SDS011;46978;50.288;28.624;2023-11-19T04:00:42;4.96;;;3.65;;
60336;SDS011;46978;50.288;28.624;2023-11-19T04:01:44;5.84;;;3.12;;
60336;SDS011;46978;50.288;28.624;2023-11-19T04:02:45;5.21;;;3.26;;
60336;SDS011;46978;50.288;28.624;2023-11-19T04:03:47;5.01;;;2.95;;
60336;SDS011;46978;50.288;28.624;2023-11-19T04:04:48;5.58;;;3.41;;
60336;SDS011;46978;50.288;28.624;2023-11-19T04:05:50;5.74;;;3.57;;
60336;SDS011;46978;50.288;28.624;2023-11-19T04:06:52;5.15;;;3.05;;
60336;SDS011;46978;50.288;28.624;2023-11-19T04:07:53;4.85;;;3.00;;
60336;SDS011;46978;50.288;28.624;2023-11-19T04:08:55;6.01;;;3.13;;
60336;SDS011;46978;50.288;28.624;2023-11-19T04:09:56;5.03;;;3.09;;
60336;SDS011;46978;50.288;28.624;2023-11-19T04:10:58;4.91;;;2.97;;
60336;SDS011;46978;50.288;28.624;2023-11-19T04:12:01;5.59;;;2.94;;
60336;SDS011;46978;50.288;28.624;2023-11-19T04:13:02;5.13;;;3.35;;
60336;SDS011;46978;50.288;28.624;2023-11-19T04:14:04;5.43;;;3.40;;
60336;SDS011;46978;50.288;28.624;2023-11-19T04:15:06;5.70;;;3.37;;
60336;SDS011;46978;50.288;28.624;2023-11-19T04:16:08;6.37;;;3.55;;
60336;SDS011;46978;50.288;28.624;2023-11-19T04:17:10;6.16;;;3.24;;
60336;SDS011;46978;50.288;28.624;2023-11-19T04:18:11;5.31;;;3.04;;
60336;SDS011;46978;50.288;28.624;2023-11-19T04:19:13;6.41;;;2.99;;
60336;SDS011;46978;50.288;28.624;2023-11-19T04:20:15;5.66;;;3.54;;
60336;SDS011;46978;50.288;28.624;2023-11-19T04:21:16;6.36;;;3.84;;
60336;SDS011;46978;50.288;28.624;2023-11-19T04:22:18;4.45;;;3.06;;
60336;SDS011;46978;50.288;28.624;2023-11-19T04:23:19;5.47;;;3.49;;
60336;SDS011;46978;50.288;28.624;2023-11-19T04:24:21;7.00;;;3.75;;
60336;SDS011;46978;50.288;28.624;2023-11-19T04:25:22;5.32;;;3.36;;
60336;SDS011;46978;50.288;28.624;2023-11-19T04:26:24;7.21;;;3.73;;
60336;SDS011;46978;50.288;28.624;2023-11-19T04:27:26;5.49;;;3.48;;
60336;SDS011;46978;50.288;28.624;2023-11-19T04:28:27;5.91;;;3.51;;
60336;SDS011;46978;50.288;28.624;2023-11-19T04:29:29;5.99;;;3.51;;
60336;SDS011;46978;50.288;28.624;2023-11-19T04:30:31;6.28;;;3.08;;
60336;SDS011;46978;50.288;28.624;2023-11-19T04:31:33;5.74;;;3.66;;
60336;SDS011;46978;50.288;28.624;2023-11-19T04:32:34;5.40;;;3.39;;
60336;SDS011;46978;50.288;28.624;2023-11-19T04:33:36;5.35;;;3.56;;
60336;SDS011;46978;50.288;28.624;2023-11-19T04:34:37;5.82;;;3.50;;
60336;SDS011;46978;50.288;28.624;2023-11-19T04:35:39;6.37;;;3.70;;
60336;SDS011;46978;50.288;28.624;2023-11-19T04:36:41;7.08;;;4.01;;
60336;SDS011;46978;50.288;28.624;2023-11-19T04:37:42;6.93;;;4.16;;
60336;SDS011;46978;50.288;28.624;2023-11-19T04:38:44;5.78;;;3.80;;
60336;SDS011;46978;50.288;28.624;2023-11-19T04:39:45;6.23;;;3.98;;
60336;SDS011;46978;50.288;28.624;2023-11-19T04:40:47;6.33;;;3.23;;
60336;SDS011;46978;50.288;28.624;2023-11-19T04:41:49;5.91;;;3.47;;
60336;SDS011;46978;50.288;28.624;2023-11-19T04:42:52;6.10;;;3.66;;
60336;SDS011;46978;50.288;28.624;2023-11-19T04:43:54;6.88;;;3.78;;
60336;SDS011;46978;50.288;28.624;2023-11-19T04:44:55;6.05;;;3.74;;
60336;SDS011;46978;50.288;28.624;2023-11-19T04:45:57;6.16;;;4.04;;
60336;SDS011;46978;50.288;28.624;2023-11-19T04:46:59;6.03;;;3.90;;
60336;SDS011;46978;50.288;28.624;2023-11-19T04:48:00;6.16;;;3.71;;
60336;SDS011;46978;50.288;28.624;2023-11-19T04:49:02;6.79;;;3.69;;
60336;SDS011;46978;50.288;28.624;2023-11-19T04:50:04;6.58;;;3.63;;
60336;SDS011;46978;50.288;28.624;2023-11-19T04:51:06;6.04;;;3.90;;
60336;SDS011;46978;50.288;28.624;2023-11-19T04:52:08;6.58;;;3.81;;
60336;SDS011;46978;50.288;28.624;2023-11-19T04:53:10;5.49;;;3.17;;
60336;SDS011;46978;50.288;28.624;2023-11-19T04:54:13;5.15;;;3.25;;
60336;SDS011;46978;50.288;28.624;2023-11-19T04:55:15;4.81;;;3.30;;
60336;SDS011;46978;50.288;28.624;2023-11-19T04:56:17;6.26;;;3.55;;
60336;SDS011;46978;50.288;28.624;2023-11-19T04:57:18;7.12;;;3.88;;
60336;SDS011;46978;50.288;28.624;2023-11-19T04:58:20;7.43;;;4.13;;
60336;SDS011;46978;50.288;28.624;2023-11-19T04:59:21;7.08;;;4.05;;
60336;SDS011;46978;50.288;28.624;2023-11-19T05:00:23;5.65;;;3.56;;
60336;SDS011;46978;50.288;28.624;2023-11-19T05:01:25;7.49;;;4.29;;
60336;SDS011;46978;50.288;28.624;2023-11-19T05:02:26;7.14;;;4.21;;
60336;SDS011;46978;50.288;28.624;2023-11-19T05:03:28;6.09;;;4.00;;
60336;SDS011;46978;50.288;28.624;2023-11-19T05:04:30;5.87;;;3.49;;
60336;SDS011;46978;50.288;28.624;2023-11-19T05:05:32;6.30;;;4.29;;
60336;SDS011;46978;50.288;28.624;2023-11-19T05:06:33;6.18;;;3.55;;
60336;SDS011;46978;50.288;28.624;2023-11-19T05:07:35;5.54;;;3.64;;
60336;SDS011;46978;50.288;28.624;2023-11-19T05:08:37;5.74;;;3.82;;
60336;SDS011;46978;50.288;28.624;2023-11-19T05:09:38;6.11;;;3.78;;
60336;SDS011;46978;50.288;28.624;2023-11-19T05:10:40;5.04;;;3.16;;
60336;SDS011;46978;50.288;28.624;2023-11-19T05:11:42;6.18;;;3.47;;
60336;SDS011;46978;50.288;28.624;2023-11-19T05:12:43;8.93;;;4.06;;
60336;SDS011;46978;50.288;28.624;2023-11-19T05:13:45;5.46;;;3.80;;
60336;SDS011;46978;50.288;28.624;2023-11-19T05:14:46;6.41;;;4.09;;
60336;SDS011;46978;50.288;28.624;2023-11-19T05:15:48;6.09;;;4.19;;
60336;SDS011;46978;50.288;28.624;2023-11-19T05:16:50;5.46;;;3.88;;
60336;SDS011;46978;50.288;28.624;2023-11-19T05:17:51;6.16;;;3.91;;
60336;SDS011;46978;50.288;28.624;2023-11-19T05:18:53;6.21;;;3.68;;
60336;SDS011;46978;50.288;28.624;2023-11-19T05:19:54;6.41;;;4.03;;
60336;SDS011;46978;50.288;28.624;2023-11-19T05:20:56;7.30;;;3.93;;
60336;SDS011;46978;50.288;28.624;2023-11-19T05:21:57;6.58;;;3.46;;
60336;SDS011;46978;50.288;28.624;2023-11-19T05:22:59;6.51;;;3.94;;
60336;SDS011;46978;50.288;28.624;2023-11-19T05:24:01;6.83;;;4.12;;
60336;SDS011;46978;50.288;28.624;2023-11-19T05:25:04;6.58;;;4.19;;
60336;SDS011;46978;50.288;28.624;2023-11-19T05:26:07;8.08;;;4.26;;
60336;SDS011;46978;50.288;28.624;2023-11-19T05:27:09;6.72;;;3.83;;
60336;SDS011;46978;50.288;28.624;2023-11-19T05:28:10;7.37;;;3.95;;
60336;SDS011;46978;50.288;28.624;2023-11-19T05:29:12;5.54;;;3.52;;
60336;SDS011;46978;50.288;28.624;2023-11-19T05:30:14;6.30;;;3.91;;
60336;SDS011;46978;50.288;28.624;2023-11-19T05:31:16;6.04;;;3.48;;
60336;SDS011;46978;50.288;28.624;2023-11-19T05:32:19;5.01;;;3.29;;
60336;SDS011;46978;50.288;28.624;2023-11-19T05:33:20;5.82;;;3.59;;
60336;SDS011;46978;50.288;28.624;2023-11-19T05:34:22;6.29;;;3.47;;
60336;SDS011;46978;50.288;28.624;2023-11-19T05:35:24;5.79;;;3.91;;
60336;SDS011;46978;50.288;28.624;2023-11-19T05:36:25;7.34;;;4.23;;
60336;SDS011;46978;50.288;28.624;2023-11-19T05:37:27;16.26;;;8.73;;
60336;SDS011;46978;50.288;28.624;2023-11-19T05:38:29;19.75;;;10.05;;
60336;SDS011;46978;50.288;28.624;2023-11-19T05:39:30;19.68;;;9.48;;
60336;SDS011;46978;50.288;28.624;2023-11-19T05:40:32;17.99;;;9.07;;
60336;SDS011;46978;50.288;28.624;2023-11-19T05:41:34;19.11;;;8.98;;
60336;SDS011;46978;50.288;28.624;2023-11-19T05:42:37;18.65;;;9.40;;
60336;SDS011;46978;50.288;28.624;2023-11-19T05:43:38;10.01;;;5.71;;
60336;SDS011;46978;50.288;28.624;2023-11-19T05:44:40;9.29;;;4.62;;
60336;SDS011;46978;50.288;28.624;2023-11-19T05:45:42;11.93;;;6.79;;
60336;SDS011;46978;50.288;28.624;2023-11-19T05:46:44;7.11;;;4.24;;
60336;SDS011;46978;50.288;28.624;2023-11-19T05:47:45;8.79;;;4.10;;
60336;SDS011;46978;50.288;28.624;2023-11-19T05:48:47;6.74;;;4.04;;
60336;SDS011;46978;50.288;28.624;2023-11-19T05:49:49;7.11;;;4.06;;
60336;SDS011;46978;50.288;28.624;2023-11-19T05:50:51;6.39;;;3.54;;
60336;SDS011;46978;50.288;28.624;2023-11-19T05:51:52;6.74;;;3.86;;
60336;SDS011;46978;50.288;28.624;2023-11-19T05:52:54;7.44;;;4.34;;
60336;SDS011;46978;50.288;28.624;2023-11-19T05:53:55;8.96;;;5.45;;
60336;SDS011;46978;50.288;28.624;2023-11-19T05:54:57;8.00;;;4.80;;
60336;SDS011;46978;50.288;28.624;2023-11-19T05:55:58;10.23;;;5.39;;
60336;SDS011;46978;50.288;28.624;2023-11-19T05:57:00;7.92;;;4.40;;
60336;SDS011;46978;50.288;28.624;2023-11-19T05:58:02;8.80;;;4.33;;
60336;SDS011;46978;50.288;28.624;2023-11-19T05:59:03;7.20;;;4.45;;
60336;SDS011;46978;50.288;28.624;2023-11-19T06:00:05;7.87;;;4.37;;
60336;SDS011;46978;50.288;28.624;2023-11-19T06:01:08;5.34;;;3.15;;
60336;SDS011;46978;50.288;28.624;2023-11-19T06:02:09;5.59;;;3.59;;
60336;SDS011;46978;50.288;28.624;2023-11-19T06:03:10;7.86;;;4.08;;
60336;SDS011;46978;50.288;28.624;2023-11-19T06:04:12;9.83;;;5.14;;
60336;SDS011;46978;50.288;28.624;2023-11-19T06:05:14;7.97;;;4.78;;
60336;SDS011;46978;50.288;28.624;2023-11-19T06:06:15;7.84;;;4.35;;
60336;SDS011;46978;50.288;28.624;2023-11-19T06:07:17;8.61;;;4.69;;
60336;SDS011;46978;50.288;28.624;2023-11-19T06:08:18;8.30;;;4.81;;
60336;SDS011;46978;50.288;28.624;2023-11-19T06:09:20;7.90;;;3.96;;
60336;SDS011;46978;50.288;28.624;2023-11-19T06:10:22;8.93;;;4.69;;